Terminal Aerodrome Forecast
Issued by NWS Sioux Falls, SD

Home | Current Version | Previous Version | Graphics & Text | Print | Product List | Glossary On
Versions: 1 2 3 4 5 6 7 8 9 10 11 12 13 14 15
000
FTUS43 KFSD 310534
TAFFSD
TAF
KFSD 310534Z 3106/0106 28020G35KT P6SM TSRA OVC090CB
     FM310630 30012G16KT P6SM BKN100
     FM311400 30010KT P6SM SCT140
     FM312000 27011KT P6SM SCT250
     FM010100 25007KT P6SM SCT250=

USA.gov is the U.S. government's official web portal to all federal, state and local government web resources and services.